Time;durP1;ratioP1;P1;durP2;ratioP2;P2;SDS_P1;SDS_P2;PMS_P1;PMS_P2;Temp;Humidity;BMP_temperature;BMP_pressure;BME280_temperature;BME280_humidity;BME280_pressure;Samples;Min_cycle;Max_cycle;Signal;HPM_P1;HPM_P2
2023/10/21 00:03:59;;;;;;;16.97;4.93;;;;;;;;;;10371090;28;20030;-70
2023/10/21 00:09:00;;;;;;;13.50;4.30;;;;;;;;;;10375418;28;20327;-70
2023/10/21 00:14:00;;;;;;;7.57;4.20;;;;;;;;;;10376131;28;20034;-69
2023/10/21 00:19:00;;;;;;;15.18;4.00;;;;;;;;;;10374580;28;20021;-69
2023/10/21 00:24:02;;;;;;;19.23;4.18;;;;;;;;;;10373117;28;20028;-69
2023/10/21 00:29:04;;;;;;;13.55;4.20;;;;;;;;;;10372299;28;20359;-69
2023/10/21 00:34:04;;;;;;;10.68;4.70;;;;;;;;;;10374100;28;20244;-71
2023/10/21 00:39:10;;;;;;;15.25;4.20;;;;;;;;;;10376571;28;20260;-69
2023/10/21 00:44:11;;;;;;;9.50;4.25;;;;;;;;;;10374226;28;20256;-69
2023/10/21 00:49:12;;;;;;;12.05;5.32;;;;;;;;;;10375146;28;20053;-70
2023/10/21 00:54:14;;;;;;;21.02;4.85;;;;;;;;;;10375353;28;20403;-70
2023/10/21 00:59:14;;;;;;;12.52;4.50;;;;;;;;;;10379196;28;20022;-69
2023/10/21 01:04:16;;;;;;;14.13;5.60;;;;;;;;;;10374511;28;20312;-70
2023/10/21 01:09:17;;;;;;;16.42;5.25;;;;;;;;;;10375166;28;20246;-69
2023/10/21 01:14:17;;;;;;;15.43;5.18;;;;;;;;;;10376775;28;20064;-70
2023/10/21 01:19:17;;;;;;;8.75;5.63;;;;;;;;;;10382230;28;20017;-69
2023/10/21 01:24:18;;;;;;;12.23;5.82;;;;;;;;;;10383260;28;20034;-69
2023/10/21 01:29:18;;;;;;;13.18;4.90;;;;;;;;;;10382654;28;20034;-69
2023/10/21 01:34:18;;;;;;;16.05;6.18;;;;;;;;;;10382818;28;20040;-70
2023/10/21 01:39:18;;;;;;;16.63;5.60;;;;;;;;;;10382774;28;20230;-69
2023/10/21 01:44:19;;;;;;;16.30;5.72;;;;;;;;;;10383184;28;20277;-70
2023/10/21 01:49:19;;;;;;;11.82;5.38;;;;;;;;;;10382794;28;20388;-70
2023/10/21 01:54:20;;;;;;;19.60;5.43;;;;;;;;;;10381116;28;20350;-69
2023/10/21 01:59:21;;;;;;;18.40;6.17;;;;;;;;;;10382375;28;20041;-69
2023/10/21 02:04:22;;;;;;;18.20;6.05;;;;;;;;;;10381902;28;20183;-69
2023/10/21 02:09:22;;;;;;;13.07;6.60;;;;;;;;;;10381604;28;20021;-69
2023/10/21 02:14:22;;;;;;;12.55;4.65;;;;;;;;;;10380800;28;20208;-69
2023/10/21 02:19:24;;;;;;;15.63;5.80;;;;;;;;;;10381324;28;20029;-69
2023/10/21 02:24:24;;;;;;;14.55;6.75;;;;;;;;;;10380674;28;20450;-70
2023/10/21 02:29:25;;;;;;;17.35;5.50;;;;;;;;;;10380267;28;20282;-71
2023/10/21 02:34:25;;;;;;;14.40;5.10;;;;;;;;;;10380536;28;20326;-70
2023/10/21 02:39:25;;;;;;;21.98;5.05;;;;;;;;;;10381515;28;20075;-70
2023/10/21 02:44:27;;;;;;;13.65;4.93;;;;;;;;;;10380797;28;20236;-70
2023/10/21 02:49:27;;;;;;;13.32;4.82;;;;;;;;;;10378599;28;20346;-68
2023/10/21 02:54:27;;;;;;;10.98;4.32;;;;;;;;;;10380106;28;20033;-69
2023/10/21 02:59:28;;;;;;;19.92;5.25;;;;;;;;;;10380063;28;20044;-69
2023/10/21 03:04:28;;;;;;;17.73;5.45;;;;;;;;;;10379358;28;20029;-70
2023/10/21 03:09:29;;;;;;;14.18;4.63;;;;;;;;;;10378968;28;20228;-69
2023/10/21 03:14:29;;;;;;;14.45;5.63;;;;;;;;;;10379440;28;20056;-69
2023/10/21 03:19:29;;;;;;;13.68;5.60;;;;;;;;;;10377143;28;20367;-69
2023/10/21 03:24:30;;;;;;;14.82;5.15;;;;;;;;;;10356811;28;20347;-69
2023/10/21 03:29:30;;;;;;;15.90;4.70;;;;;;;;;;10357181;28;20025;-70
2023/10/21 03:34:31;;;;;;;13.63;5.13;;;;;;;;;;10379247;28;20265;-71
2023/10/21 03:39:32;;;;;;;18.42;7.22;;;;;;;;;;10378130;28;20304;-69
2023/10/21 03:44:32;;;;;;;23.35;5.45;;;;;;;;;;10378014;28;20018;-69
2023/10/21 03:49:32;;;;;;;16.50;5.80;;;;;;;;;;10377360;28;20057;-69
2023/10/21 03:54:33;;;;;;;12.23;5.83;;;;;;;;;;10377638;28;20034;-69
2023/10/21 03:59:33;;;;;;;12.57;5.33;;;;;;;;;;10377673;28;20275;-70
2023/10/21 04:04:33;;;;;;;17.10;5.90;;;;;;;;;;10375810;28;20208;-69
2023/10/21 04:09:33;;;;;;;11.90;6.22;;;;;;;;;;10376319;28;20077;-69
2023/10/21 04:14:34;;;;;;;16.48;5.65;;;;;;;;;;10377091;28;20017;-69
2023/10/21 04:19:34;;;;;;;20.60;6.18;;;;;;;;;;10377184;28;20393;-70
2023/10/21 04:24:34;;;;;;;20.20;5.65;;;;;;;;;;10376393;28;20026;-71
2023/10/21 04:29:34;;;;;;;17.85;6.03;;;;;;;;;;10376063;28;20022;-71
2023/10/21 04:34:35;;;;;;;16.00;5.95;;;;;;;;;;10375781;28;20288;-70
2023/10/21 04:39:35;;;;;;;14.63;5.40;;;;;;;;;;10375890;28;20033;-69
2023/10/21 04:44:35;;;;;;;14.10;5.63;;;;;;;;;;10376155;28;20426;-69
2023/10/21 04:49:36;;;;;;;18.20;6.40;;;;;;;;;;10364839;28;20240;-70
2023/10/21 04:54:37;;;;;;;16.10;5.40;;;;;;;;;;10344292;28;20093;-70
2023/10/21 04:59:38;;;;;;;12.05;5.50;;;;;;;;;;10375644;28;20029;-69
2023/10/21 05:04:38;;;;;;;12.70;5.85;;;;;;;;;;10375606;28;20045;-68
2023/10/21 05:09:39;;;;;;;19.08;5.93;;;;;;;;;;10375666;28;20021;-68
2023/10/21 05:14:39;;;;;;;22.52;5.53;;;;;;;;;;10372520;28;20081;-68
2023/10/21 05:19:39;;;;;;;13.07;5.68;;;;;;;;;;10309218;28;20049;-67
2023/10/21 05:24:40;;;;;;;20.50;7.27;;;;;;;;;;10314647;28;20030;-69
2023/10/21 05:29:40;;;;;;;19.05;4.95;;;;;;;;;;10309394;28;20089;-67
2023/10/21 05:34:40;;;;;;;21.20;7.00;;;;;;;;;;10326389;28;20028;-67
2023/10/21 05:39:41;;;;;;;13.93;5.75;;;;;;;;;;10321965;28;20026;-78
2023/10/21 05:44:41;;;;;;;18.80;6.35;;;;;;;;;;10319529;28;20031;-76
2023/10/21 05:49:41;;;;;;;15.73;6.88;;;;;;;;;;10315777;28;20113;-76
2023/10/21 05:54:42;;;;;;;13.37;5.73;;;;;;;;;;10308539;28;20027;-75
2023/10/21 05:59:42;;;;;;;19.63;5.28;;;;;;;;;;10304885;28;20022;-75
2023/10/21 06:04:42;;;;;;;19.00;5.63;;;;;;;;;;10311380;28;20022;-78
2023/10/21 06:09:43;;;;;;;18.45;5.70;;;;;;;;;;10318258;28;20026;-74
2023/10/21 06:14:43;;;;;;;11.98;5.05;;;;;;;;;;10314919;28;20027;-76
2023/10/21 06:19:44;;;;;;;15.65;5.65;;;;;;;;;;10325550;28;20311;-78
2023/10/21 06:24:45;;;;;;;18.17;5.05;;;;;;;;;;10325347;28;20236;-74
2023/10/21 06:29:45;;;;;;;23.85;7.05;;;;;;;;;;10326049;28;20053;-75
2023/10/21 06:34:45;;;;;;;15.95;5.07;;;;;;;;;;10327158;28;20030;-75
2023/10/21 06:39:45;;;;;;;17.45;5.32;;;;;;;;;;10331978;28;20054;-74
2023/10/21 06:44:46;;;;;;;14.18;4.63;;;;;;;;;;10336088;28;20057;-74
2023/10/21 06:49:47;;;;;;;24.88;5.43;;;;;;;;;;10335240;28;20544;-74
2023/10/21 06:54:47;;;;;;;17.60;4.30;;;;;;;;;;10334410;28;20126;-74
2023/10/21 06:59:48;;;;;;;14.30;4.80;;;;;;;;;;10331662;28;20022;-74
2023/10/21 07:04:48;;;;;;;15.57;3.72;;;;;;;;;;10332509;28;20032;-74
2023/10/21 07:09:48;;;;;;;21.45;6.70;;;;;;;;;;10333553;28;20077;-74
2023/10/21 07:14:49;;;;;;;24.17;7.15;;;;;;;;;;10334257;28;20065;-74
2023/10/21 07:19:50;;;;;;;21.33;5.80;;;;;;;;;;10333768;28;20048;-74
2023/10/21 07:24:53;;;;;;;11.30;4.03;;;;;;;;;;10334982;28;20320;-75
2023/10/21 07:29:56;;;;;;;18.73;5.18;;;;;;;;;;10335033;28;20026;-74
2023/10/21 07:34:56;;;;;;;16.30;4.78;;;;;;;;;;10336161;28;20034;-73
2023/10/21 07:40:00;;;;;;;9.00;4.03;;;;;;;;;;10335997;28;20061;-74
2023/10/21 07:45:00;;;;;;;22.75;5.00;;;;;;;;;;10331029;28;20041;-74
2023/10/21 07:50:05;;;;;;;11.67;4.97;;;;;;;;;;10334519;28;20053;-73
2023/10/21 07:55:06;;;;;;;12.07;4.15;;;;;;;;;;10332327;28;20033;-74
2023/10/21 08:00:06;;;;;;;15.05;3.83;;;;;;;;;;10321576;28;20314;-75
2023/10/21 08:05:07;;;;;;;16.10;4.78;;;;;;;;;;10335376;28;20383;-75
2023/10/21 08:10:09;;;;;;;18.73;4.72;;;;;;;;;;10336054;28;20014;-75
2023/10/21 08:15:09;;;;;;;22.15;5.03;;;;;;;;;;10331515;28;20010;-74
2023/10/21 08:20:10;;;;;;;16.95;4.63;;;;;;;;;;10332568;28;20018;-74
2023/10/21 08:25:10;;;;;;;10.93;4.10;;;;;;;;;;10333158;28;20041;-75
2023/10/21 08:30:11;;;;;;;16.10;5.05;;;;;;;;;;10332780;28;20014;-76
2023/10/21 08:35:13;;;;;;;8.23;3.63;;;;;;;;;;10332103;28;20064;-75
2023/10/21 08:40:13;;;;;;;13.02;3.25;;;;;;;;;;10329608;28;20285;-76
2023/10/21 08:45:16;;;;;;;11.30;3.47;;;;;;;;;;10331401;28;20018;-76
2023/10/21 08:50:17;;;;;;;18.98;4.25;;;;;;;;;;10340679;28;20037;-75
2023/10/21 08:55:19;;;;;;;12.57;4.25;;;;;;;;;;10332983;28;20014;-74
2023/10/21 09:00:19;;;;;;;14.38;3.67;;;;;;;;;;10330599;28;20089;-77
2023/10/21 09:05:19;;;;;;;14.17;2.73;;;;;;;;;;10331093;28;20019;-66
2023/10/21 09:10:21;;;;;;;12.98;2.90;;;;;;;;;;10329326;28;20030;-66
2023/10/21 09:15:34;;;;;;;12.43;2.83;;;;;;;;;;10327589;28;20321;-67
2023/10/21 09:20:36;;;;;;;9.85;2.40;;;;;;;;;;10323336;28;20118;-68
2023/10/21 09:25:37;;;;;;;10.50;3.00;;;;;;;;;;10326590;28;20022;-67
2023/10/21 09:30:38;;;;;;;8.18;2.63;;;;;;;;;;10328544;28;20324;-67
2023/10/21 09:35:38;;;;;;;12.13;2.38;;;;;;;;;;10334622;28;20014;-67
2023/10/21 09:40:38;;;;;;;10.80;2.28;;;;;;;;;;10339869;28;20081;-67
2023/10/21 09:45:42;;;;;;;12.63;2.13;;;;;;;;;;10339997;28;20073;-68
2023/10/21 09:50:46;;;;;;;19.95;3.13;;;;;;;;;;10336604;28;20075;-68
2023/10/21 09:55:47;;;;;;;16.67;2.30;;;;;;;;;;10328611;28;20022;-67
2023/10/21 10:00:47;;;;;;;21.75;2.90;;;;;;;;;;10326698;28;20033;-67
2023/10/21 10:05:48;;;;;;;14.63;2.40;;;;;;;;;;10326650;28;20096;-68
2023/10/21 10:10:51;;;;;;;16.48;2.47;;;;;;;;;;10325112;28;20093;-67
2023/10/21 10:15:51;;;;;;;12.85;2.22;;;;;;;;;;10324001;28;20038;-68
2023/10/21 10:20:52;;;;;;;10.50;2.20;;;;;;;;;;10327590;28;20236;-67
2023/10/21 10:25:54;;;;;;;16.23;2.33;;;;;;;;;;10325871;28;20042;-67
2023/10/21 10:30:56;;;;;;;12.73;1.90;;;;;;;;;;10326103;28;20042;-67
2023/10/21 10:35:57;;;;;;;15.82;2.67;;;;;;;;;;10337092;28;20030;-67
2023/10/21 10:41:05;;;;;;;9.98;1.90;;;;;;;;;;10337563;28;20085;-69
2023/10/21 10:46:06;;;;;;;10.05;1.75;;;;;;;;;;10334210;28;20033;-69
2023/10/21 10:51:15;;;;;;;8.55;2.10;;;;;;;;;;10334827;28;20232;-68
2023/10/21 10:56:19;;;;;;;14.00;2.28;;;;;;;;;;10335144;28;20172;-68
2023/10/21 11:01:21;;;;;;;9.93;2.10;;;;;;;;;;10332877;28;20018;-68
2023/10/21 11:06:23;;;;;;;13.13;1.58;;;;;;;;;;10333604;28;20189;-67
2023/10/21 11:11:23;;;;;;;6.55;2.00;;;;;;;;;;10336125;28;20041;-67
2023/10/21 11:16:23;;;;;;;14.48;2.00;;;;;;;;;;10335851;28;20253;-67
2023/10/21 11:21:41;;;;;;;14.53;2.20;;;;;;;;;;10336117;28;20093;-68
2023/10/21 11:26:42;;;;;;;22.13;2.75;;;;;;;;;;10335060;28;20354;-68
2023/10/21 11:31:43;;;;;;;15.77;3.28;;;;;;;;;;10335702;28;20057;-69
2023/10/21 11:36:44;;;;;;;12.02;2.80;;;;;;;;;;10334796;28;20351;-68
2023/10/21 11:41:46;;;;;;;14.13;2.47;;;;;;;;;;10334300;28;20330;-67
2023/10/21 11:46:46;;;;;;;7.07;2.38;;;;;;;;;;10339677;28;20014;-68
2023/10/21 11:51:46;;;;;;;15.48;1.73;;;;;;;;;;10333271;28;20320;-67
2023/10/21 12:44:23;;;;;;;15.93;3.05;;;;;;;;;;10333388;28;20235;-68
2023/10/21 12:49:28;;;;;;;13.23;2.03;;;;;;;;;;10334517;28;20106;-69
2023/10/21 12:54:31;;;;;;;15.50;2.95;;;;;;;;;;10330616;28;20619;-68
2023/10/21 12:59:31;;;;;;;11.95;2.13;;;;;;;;;;10332810;28;20094;-68
2023/10/21 13:04:32;;;;;;;9.88;2.50;;;;;;;;;;10332996;28;20018;-67
2023/10/21 13:09:32;;;;;;;18.15;2.90;;;;;;;;;;10331840;28;20296;-67
2023/10/21 13:14:32;;;;;;;13.33;2.77;;;;;;;;;;10339382;28;20377;-69
2023/10/21 13:19:32;;;;;;;16.10;2.47;;;;;;;;;;10340220;28;20486;-70
2023/10/21 13:24:34;;;;;;;22.02;3.40;;;;;;;;;;10338367;28;20353;-71
2023/10/21 13:29:36;;;;;;;9.75;2.20;;;;;;;;;;10339851;28;20342;-70
2023/10/21 13:34:36;;;;;;;13.20;3.67;;;;;;;;;;10340633;28;20018;-70
2023/10/21 13:39:36;;;;;;;8.40;2.05;;;;;;;;;;10339291;28;20121;-77
2023/10/21 13:44:38;;;;;;;24.60;2.40;;;;;;;;;;10343086;28;20014;-77
2023/10/21 13:49:39;;;;;;;14.30;2.47;;;;;;;;;;10347530;28;20217;-81
2023/10/21 13:54:39;;;;;;;17.52;2.90;;;;;;;;;;10347675;28;20010;-76
2023/10/21 13:59:44;;;;;;;11.32;2.30;;;;;;;;;;10342103;28;20182;-77
2023/10/21 14:04:45;;;;;;;17.85;2.67;;;;;;;;;;10341473;28;20038;-76
2023/10/21 14:09:45;;;;;;;7.63;2.53;;;;;;;;;;10341563;28;20355;-72
2023/10/21 14:14:46;;;;;;;11.45;2.20;;;;;;;;;;10343075;28;20026;-73
2023/10/21 14:19:46;;;;;;;15.40;2.97;;;;;;;;;;10338717;28;20030;-72
2023/10/21 14:24:46;;;;;;;20.77;3.25;;;;;;;;;;10337413;28;20370;-75
2023/10/21 14:29:47;;;;;;;13.25;2.03;;;;;;;;;;10334749;28;20273;-75
2023/10/21 14:34:53;;;;;;;11.43;2.40;;;;;;;;;;10335322;28;20209;-75
2023/10/21 14:39:53;;;;;;;17.13;2.40;;;;;;;;;;10336151;28;20018;-75
2023/10/21 14:44:55;;;;;;;18.47;3.27;;;;;;;;;;10337340;28;20030;-74
2023/10/21 14:49:57;;;;;;;7.97;2.17;;;;;;;;;;10336203;28;20038;-74
2023/10/21 14:54:58;;;;;;;13.32;2.80;;;;;;;;;;10334442;28;20089;-72
2023/10/21 14:59:58;;;;;;;11.85;2.08;;;;;;;;;;10336236;28;20076;-72
2023/10/21 15:04:59;;;;;;;11.02;2.58;;;;;;;;;;10324682;28;20195;-71
2023/10/21 15:09:59;;;;;;;8.57;2.10;;;;;;;;;;10336411;28;20136;-75
2023/10/21 15:15:00;;;;;;;18.15;2.92;;;;;;;;;;10336674;28;20018;-75
2023/10/21 15:20:00;;;;;;;26.33;3.55;;;;;;;;;;10335859;28;20227;-77
2023/10/21 15:25:01;;;;;;;16.47;2.80;;;;;;;;;;10336494;28;20212;-71
2023/10/21 15:30:01;;;;;;;12.95;2.15;;;;;;;;;;10337608;28;20534;-77
2023/10/21 15:35:02;;;;;;;10.82;2.33;;;;;;;;;;10334976;28;20299;-77
2023/10/21 15:40:02;;;;;;;13.50;2.97;;;;;;;;;;10334605;28;20026;-78
2023/10/21 15:45:03;;;;;;;13.23;2.88;;;;;;;;;;10333966;28;20276;-74
2023/10/21 15:50:04;;;;;;;10.10;2.58;;;;;;;;;;10335509;28;20101;-72
2023/10/21 15:55:04;;;;;;;12.30;2.70;;;;;;;;;;10334879;28;20037;-74
2023/10/21 16:00:11;;;;;;;15.00;2.97;;;;;;;;;;10334969;28;20022;-74
2023/10/21 16:05:11;;;;;;;11.00;3.87;;;;;;;;;;10333054;28;20056;-75
2023/10/21 16:10:12;;;;;;;15.73;2.60;;;;;;;;;;10334018;28;20014;-75
2023/10/21 16:15:12;;;;;;;26.10;3.20;;;;;;;;;;10324821;28;20235;-75
2023/10/21 16:20:12;;;;;;;9.67;2.27;;;;;;;;;;10330316;28;20056;-76
2023/10/21 16:25:13;;;;;;;19.83;3.07;;;;;;;;;;10331457;28;20038;-75
2023/10/21 16:30:13;;;;;;;12.27;4.18;;;;;;;;;;10334317;28;20324;-75
2023/10/21 16:35:13;;;;;;;18.15;3.55;;;;;;;;;;10333888;28;20037;-75
2023/10/21 16:40:13;;;;;;;10.13;2.33;;;;;;;;;;10332938;28;20277;-75
2023/10/21 16:45:14;;;;;;;18.08;2.97;;;;;;;;;;10331682;28;20232;-75
2023/10/21 16:50:14;;;;;;;15.68;2.85;;;;;;;;;;10331875;28;20046;-75
2023/10/21 16:55:15;;;;;;;15.17;3.17;;;;;;;;;;10331890;28;20028;-75
2023/10/21 17:00:15;;;;;;;12.35;2.97;;;;;;;;;;10331704;28;20209;-75
2023/10/21 17:05:15;;;;;;;19.80;2.80;;;;;;;;;;10331744;28;20354;-76
2023/10/21 17:10:16;;;;;;;24.03;3.77;;;;;;;;;;10332940;28;20205;-75
2023/10/21 17:15:16;;;;;;;17.57;3.37;;;;;;;;;;10330566;28;20073;-75
2023/10/21 17:20:16;;;;;;;17.17;3.80;;;;;;;;;;10337301;28;20029;-74
2023/10/21 17:25:16;;;;;;;18.92;4.05;;;;;;;;;;10331304;28;20021;-78
2023/10/21 17:30:17;;;;;;;11.75;2.17;;;;;;;;;;10331775;28;20026;-75
2023/10/21 17:35:17;;;;;;;19.88;4.82;;;;;;;;;;10331008;28;20061;-75
2023/10/21 17:40:17;;;;;;;16.13;3.13;;;;;;;;;;10328440;28;20025;-76
2023/10/21 17:45:18;;;;;;;11.75;4.10;;;;;;;;;;10329115;28;20057;-74
2023/10/21 17:50:19;;;;;;;12.18;3.97;;;;;;;;;;10327511;28;20035;-73
2023/10/21 17:55:20;;;;;;;14.10;4.05;;;;;;;;;;10327371;28;20182;-74
2023/10/21 18:00:22;;;;;;;12.55;3.78;;;;;;;;;;10343451;28;20201;-78
2023/10/21 18:05:22;;;;;;;19.65;4.38;;;;;;;;;;10326009;28;20230;-74
2023/10/21 18:10:23;;;;;;;13.52;4.25;;;;;;;;;;10330488;28;20022;-76
2023/10/21 18:15:24;;;;;;;14.20;4.03;;;;;;;;;;10331864;28;20022;-76
2023/10/21 18:20:25;;;;;;;13.45;3.60;;;;;;;;;;10344947;28;20272;-73
2023/10/21 18:25:26;;;;;;;21.60;5.22;;;;;;;;;;10324064;28;20024;-73
2023/10/21 18:30:26;;;;;;;11.30;4.00;;;;;;;;;;10328280;28;20022;-73
2023/10/21 18:35:26;;;;;;;18.08;4.25;;;;;;;;;;10332372;28;20117;-73
2023/10/21 18:40:26;;;;;;;14.77;4.45;;;;;;;;;;10330616;28;20034;-73
2023/10/21 18:45:27;;;;;;;14.05;3.35;;;;;;;;;;10329154;28;20052;-72
2023/10/21 18:50:27;;;;;;;26.27;10.13;;;;;;;;;;10323769;28;20046;-73
2023/10/21 18:55:27;;;;;;;21.55;3.88;;;;;;;;;;10333640;28;20029;-83
2023/10/21 19:00:28;;;;;;;15.40;3.17;;;;;;;;;;10330945;28;20304;-81
2023/10/21 19:05:29;;;;;;;19.80;2.87;;;;;;;;;;10328367;28;20030;-83
2023/10/21 19:10:31;;;;;;;12.65;3.17;;;;;;;;;;10333650;28;20022;-73
2023/10/21 19:15:34;;;;;;;12.68;3.20;;;;;;;;;;10331276;28;20030;-84
2023/10/21 19:20:36;;;;;;;15.50;3.08;;;;;;;;;;10341432;28;20026;-78
2023/10/21 19:25:36;;;;;;;19.77;4.13;;;;;;;;;;10333769;28;20093;-78
2023/10/21 19:30:37;;;;;;;13.37;3.43;;;;;;;;;;10334506;28;20021;-78
2023/10/21 19:35:37;;;;;;;17.10;4.07;;;;;;;;;;10329875;28;20269;-77
2023/10/21 19:40:38;;;;;;;22.85;3.80;;;;;;;;;;10337216;28;20022;-78
2023/10/21 19:45:41;;;;;;;13.60;3.00;;;;;;;;;;10335986;28;20018;-74
2023/10/21 19:50:41;;;;;;;16.50;3.90;;;;;;;;;;10334498;28;20402;-78
2023/10/21 19:55:42;;;;;;;13.55;4.03;;;;;;;;;;10344216;28;20057;-76
2023/10/21 20:00:45;;;;;;;14.00;3.83;;;;;;;;;;10333498;28;20042;-73
2023/10/21 20:05:55;;;;;;;12.98;3.90;;;;;;;;;;10335440;28;20029;-74
2023/10/21 20:11:03;;;;;;;14.32;4.65;;;;;;;;;;10334903;28;20022;-72
2023/10/21 20:16:05;;;;;;;16.15;4.15;;;;;;;;;;10333125;28;20045;-73
2023/10/21 20:21:05;;;;;;;16.15;4.88;;;;;;;;;;10332608;28;20080;-74
2023/10/21 20:26:07;;;;;;;24.92;5.28;;;;;;;;;;10332680;28;20343;-76
2023/10/21 20:31:08;;;;;;;13.95;5.30;;;;;;;;;;10334461;28;20297;-74
2023/10/21 20:36:13;;;;;;;16.60;2.95;;;;;;;;;;10334963;28;20025;-77
2023/10/21 20:41:14;;;;;;;11.93;2.97;;;;;;;;;;10353026;28;20308;-74
2023/10/21 20:46:14;;;;;;;13.63;3.47;;;;;;;;;;10374714;28;20022;-76
2023/10/21 20:51:15;;;;;;;14.07;3.17;;;;;;;;;;10371843;28;20045;-74
2023/10/21 20:56:19;;;;;;;15.32;3.75;;;;;;;;;;10377811;28;20025;-74
2023/10/21 21:01:20;;;;;;;19.65;3.40;;;;;;;;;;10372524;28;20038;-74
2023/10/21 21:06:20;;;;;;;13.77;3.92;;;;;;;;;;10372985;28;20037;-74
2023/10/21 21:11:20;;;;;;;22.00;4.28;;;;;;;;;;10371813;28;20072;-74
2023/10/21 21:16:20;;;;;;;17.33;3.67;;;;;;;;;;10371660;28;20057;-74
2023/10/21 21:21:21;;;;;;;21.75;3.95;;;;;;;;;;10373754;28;20088;-74
2023/10/21 21:26:22;;;;;;;11.60;3.60;;;;;;;;;;10375724;28;20231;-74
2023/10/21 21:31:26;;;;;;;24.33;4.80;;;;;;;;;;10377211;28;20246;-74
2023/10/21 21:36:26;;;;;;;21.33;5.60;;;;;;;;;;10382451;28;20025;-73
2023/10/21 21:41:27;;;;;;;18.50;5.30;;;;;;;;;;10383420;28;20236;-73
2023/10/21 21:46:27;;;;;;;27.15;6.78;;;;;;;;;;10383017;28;20083;-72
2023/10/21 21:51:27;;;;;;;18.85;5.78;;;;;;;;;;10382228;28;20343;-73
2023/10/21 21:56:29;;;;;;;23.85;4.78;;;;;;;;;;10382699;28;20108;-72
2023/10/21 22:01:31;;;;;;;21.70;5.87;;;;;;;;;;10382566;28;20236;-73
2023/10/21 22:06:31;;;;;;;18.33;5.50;;;;;;;;;;10381574;28;20029;-73
2023/10/21 22:11:33;;;;;;;27.67;6.90;;;;;;;;;;10382825;28;20204;-72
2023/10/21 22:16:36;;;;;;;21.92;5.90;;;;;;;;;;10380639;28;20350;-72
2023/10/21 22:21:36;;;;;;;15.13;5.25;;;;;;;;;;10382643;28;20030;-72
2023/10/21 22:27:14;;;;;;;14.10;4.97;;;;;;;;;;10381792;28;20022;-72
2023/10/21 22:32:05;;;;;;;15.93;4.93;;;;;;;;;;10348009;28;20037;-72
2023/10/21 22:37:06;;;;;;;22.55;5.22;;;;;;;;;;10381379;28;20017;-73
2023/10/21 22:42:06;;;;;;;17.60;3.55;;;;;;;;;;10380741;28;20316;-72
2023/10/21 22:47:07;;;;;;;13.97;4.20;;;;;;;;;;10379016;28;20204;-72
2023/10/21 22:52:08;;;;;;;18.25;4.43;;;;;;;;;;10379349;28;20291;-72
2023/10/21 22:57:08;;;;;;;14.10;4.10;;;;;;;;;;10380527;28;20231;-73
2023/10/21 23:02:09;;;;;;;17.70;4.28;;;;;;;;;;10380906;28;20022;-73
2023/10/21 23:07:09;;;;;;;10.52;3.50;;;;;;;;;;10379791;28;20280;-72
2023/10/21 23:12:10;;;;;;;11.75;2.92;;;;;;;;;;10379608;28;20045;-72
2023/10/21 23:17:12;;;;;;;14.27;2.97;;;;;;;;;;10379385;28;20304;-73
2023/10/21 23:22:14;;;;;;;9.50;2.70;;;;;;;;;;10377906;28;20024;-72
2023/10/21 23:27:14;;;;;;;8.07;2.72;;;;;;;;;;10378875;28;20037;-74
2023/10/21 23:32:14;;;;;;;14.00;2.65;;;;;;;;;;10372584;28;20049;-73
2023/10/21 23:37:16;;;;;;;14.05;3.42;;;;;;;;;;10378263;28;20045;-73
2023/10/21 23:42:17;;;;;;;12.43;3.33;;;;;;;;;;10378350;28;20025;-72
2023/10/21 23:47:17;;;;;;;17.13;3.20;;;;;;;;;;10378363;28;20024;-72
2023/10/21 23:52:18;;;;;;;11.48;3.25;;;;;;;;;;10378191;28;20320;-72
2023/10/21 23:57:18;;;;;;;14.60;4.00;;;;;;;;;;10376742;28;20022;-72
